createdAt,value
2018-07-05T00:00:49.644Z,32.30
2018-07-05T00:02:04.255Z,32.20
2018-07-05T00:03:19.029Z,32.10
2018-07-05T00:04:33.850Z,32.10
2018-07-05T00:05:48.659Z,32.10
2018-07-05T00:07:03.720Z,31.90
2018-07-05T00:08:18.364Z,31.90
2018-07-05T00:09:33.195Z,31.90
2018-07-05T00:10:47.836Z,31.90
2018-07-05T00:12:02.620Z,32.00
2018-07-05T00:13:17.430Z,32.10
2018-07-05T00:14:32.221Z,32.10
2018-07-05T00:15:47.045Z,32.10
2018-07-05T00:17:01.700Z,32.20
2018-07-05T00:18:16.544Z,32.20
2018-07-05T00:19:31.380Z,32.20
2018-07-05T00:20:46.122Z,32.10
2018-07-05T00:22:00.824Z,32.10
2018-07-05T00:23:15.598Z,32.00
2018-07-05T00:24:30.311Z,32.10
2018-07-05T00:25:45.046Z,32.10
2018-07-05T00:26:59.705Z,32.20
2018-07-05T00:28:14.471Z,32.10
2018-07-05T00:29:29.292Z,32.00
2018-07-05T00:30:44.090Z,32.10
2018-07-05T00:31:58.715Z,32.10
2018-07-05T00:33:13.516Z,32.20
2018-07-05T00:34:28.156Z,32.10
2018-07-05T00:35:42.883Z,32.00
2018-07-05T00:36:57.460Z,31.90
2018-07-05T00:38:12.233Z,31.80
2018-07-05T00:40:35.842Z,31.80
2018-07-05T00:41:50.584Z,31.80
2018-07-05T00:43:05.390Z,31.80
2018-07-05T00:44:19.967Z,31.70
2018-07-05T00:45:34.577Z,31.80
2018-07-05T00:46:49.458Z,31.80
2018-07-05T00:48:04.035Z,31.80
2018-07-05T00:49:18.812Z,31.90
2018-07-05T00:50:33.480Z,31.90
2018-07-05T00:51:48.211Z,32.00
2018-07-05T00:53:03.122Z,32.00
2018-07-05T00:54:17.791Z,31.90
2018-07-05T00:55:32.505Z,32.00
2018-07-05T00:56:47.209Z,31.90
2018-07-05T00:58:01.969Z,31.90
2018-07-05T00:59:16.727Z,31.80
2018-07-05T01:00:31.481Z,31.80
2018-07-05T01:01:46.135Z,31.70
2018-07-05T01:03:00.859Z,31.70
2018-07-05T01:04:15.636Z,31.70
2018-07-05T01:05:30.492Z,31.60
2018-07-05T01:06:45.065Z,31.50
2018-07-05T01:07:59.836Z,31.50
2018-07-05T01:09:14.594Z,31.50
2018-07-05T01:10:29.384Z,31.50
2018-07-05T01:11:44.260Z,31.60
2018-07-05T01:12:58.992Z,31.70
2018-07-05T01:14:13.636Z,31.70
2018-07-05T01:15:28.197Z,31.70
2018-07-05T01:16:42.980Z,31.70
2018-07-05T01:17:57.544Z,31.60
2018-07-05T01:19:12.285Z,31.60
2018-07-05T01:20:27.732Z,31.50
2018-07-05T01:21:42.583Z,31.50
2018-07-05T01:22:57.281Z,31.50
2018-07-05T01:24:12.089Z,31.40
2018-07-05T01:25:26.819Z,31.40
2018-07-05T01:26:41.614Z,31.40
2018-07-05T01:27:56.204Z,31.30
2018-07-05T01:29:10.960Z,31.30
2018-07-05T01:30:25.750Z,31.30
2018-07-05T01:31:40.452Z,31.20
2018-07-05T01:32:55.226Z,31.20
2018-07-05T01:34:09.809Z,31.20
2018-07-05T01:35:24.332Z,31.30
2018-07-05T01:36:39.179Z,31.30
2018-07-05T01:37:53.972Z,31.40
2018-07-05T01:39:08.796Z,31.30
2018-07-05T01:40:23.612Z,31.20
2018-07-05T01:41:38.423Z,31.20
2018-07-05T01:42:53.288Z,31.10
2018-07-05T01:44:08.034Z,31.10
2018-07-05T01:45:22.508Z,31.10
2018-07-05T01:47:46.101Z,31.00
2018-07-05T01:49:00.908Z,31.00
2018-07-05T01:50:15.522Z,31.00
2018-07-05T01:51:30.314Z,31.00
2018-07-05T01:52:44.914Z,31.00
2018-07-05T01:53:59.700Z,30.90
2018-07-05T01:55:14.411Z,30.80
2018-07-05T01:56:29.136Z,30.80
2018-07-05T01:57:43.946Z,30.70
2018-07-05T01:58:58.520Z,30.60
2018-07-05T02:00:13.298Z,30.70
2018-07-05T02:01:27.896Z,30.60
2018-07-05T02:02:42.581Z,30.60
2018-07-05T02:03:57.366Z,30.50
2018-07-05T02:05:12.256Z,30.50
2018-07-05T02:06:27.013Z,30.40
2018-07-05T02:07:41.632Z,30.50
2018-07-05T02:08:56.421Z,30.50
2018-07-05T02:10:11.125Z,30.60
2018-07-05T02:11:25.890Z,30.60
2018-07-05T02:12:40.523Z,30.60
2018-07-05T02:13:55.281Z,30.50
2018-07-05T02:15:09.973Z,30.50
2018-07-05T02:16:24.796Z,30.50
2018-07-05T02:17:39.404Z,30.50
2018-07-05T02:18:54.096Z,30.50
2018-07-05T02:20:08.869Z,30.50
2018-07-05T02:21:23.570Z,30.50
2018-07-05T02:22:38.212Z,30.50
2018-07-05T02:23:52.816Z,30.50
2018-07-05T02:25:07.624Z,30.50
2018-07-05T02:26:22.400Z,30.50
2018-07-05T02:27:37.121Z,30.50
2018-07-05T02:30:00.395Z,30.50
2018-07-05T02:31:14.910Z,30.60
2018-07-05T02:32:29.616Z,30.70
2018-07-05T02:33:45.532Z,30.70
2018-07-05T02:35:00.246Z,30.70
2018-07-05T02:36:15.073Z,30.60
2018-07-05T02:37:35.237Z,30.60
2018-07-05T02:38:55.356Z,30.60
2018-07-05T02:40:09.885Z,30.60
2018-07-05T02:41:24.611Z,30.60
2018-07-05T02:42:39.121Z,30.70
2018-07-05T02:43:53.763Z,30.70
2018-07-05T02:45:08.376Z,30.80
2018-07-05T02:46:22.966Z,30.70
2018-07-05T02:47:37.652Z,30.80
2018-07-05T02:48:52.282Z,30.70
2018-07-05T02:50:07.102Z,30.70
2018-07-05T02:51:21.850Z,30.70
2018-07-05T02:52:36.673Z,30.60
2018-07-05T02:53:51.254Z,30.50
2018-07-05T02:55:05.993Z,30.40
2018-07-05T02:56:20.794Z,30.40
2018-07-05T02:57:35.524Z,30.30
2018-07-05T02:58:50.648Z,30.30
2018-07-05T03:00:05.223Z,30.20
2018-07-05T03:01:19.846Z,30.20
2018-07-05T03:02:34.432Z,30.20
2018-07-05T03:03:49.272Z,30.30
2018-07-05T03:05:04.012Z,30.30
2018-07-05T03:06:18.898Z,30.40
2018-07-05T03:07:33.520Z,30.60
2018-07-05T03:08:48.246Z,30.60
2018-07-05T03:10:03.067Z,30.70
2018-07-05T03:11:17.768Z,30.80
2018-07-05T03:12:32.507Z,30.80
2018-07-05T03:13:47.166Z,30.90
2018-07-05T03:15:01.847Z,30.90
2018-07-05T03:16:16.646Z,31.00
2018-07-05T03:17:31.379Z,31.00
2018-07-05T03:18:45.989Z,31.00
2018-07-05T03:20:00.756Z,31.10
2018-07-05T03:21:15.342Z,31.10
2018-07-05T03:22:30.029Z,31.10
2018-07-05T03:23:44.720Z,31.20
2018-07-05T03:24:59.254Z,31.30
2018-07-05T03:26:14.012Z,31.40
2018-07-05T03:27:28.672Z,31.30
2018-07-05T03:28:43.360Z,31.20
2018-07-05T03:29:58.045Z,31.40
2018-07-05T03:31:12.620Z,31.20
2018-07-05T03:32:27.240Z,31.30
2018-07-05T03:33:42.512Z,31.30
2018-07-05T03:34:57.449Z,31.20
2018-07-05T03:36:12.417Z,31.20
2018-07-05T03:37:27.060Z,31.20
2018-07-05T03:38:42.007Z,31.10
2018-07-05T03:39:56.631Z,31.20
2018-07-05T03:41:11.314Z,31.30
2018-07-05T03:42:26.080Z,31.30
2018-07-05T03:43:40.882Z,31.20
2018-07-05T03:44:55.589Z,31.10
2018-07-05T03:46:10.254Z,31.10
2018-07-05T03:47:24.871Z,31.10
2018-07-05T03:48:39.653Z,31.20
2018-07-05T03:49:54.269Z,31.20
2018-07-05T03:52:17.549Z,31.20
2018-07-05T03:53:32.332Z,31.20
2018-07-05T03:54:46.925Z,31.30
2018-07-05T03:56:01.623Z,31.30
2018-07-05T03:57:16.464Z,31.40
2018-07-05T03:58:31.072Z,31.30
2018-07-05T03:59:45.779Z,31.20
2018-07-05T04:01:00.499Z,31.30
2018-07-05T04:02:15.182Z,31.30
2018-07-05T04:03:29.880Z,31.20
2018-07-05T04:04:44.654Z,31.20
2018-07-05T04:05:59.432Z,31.30
2018-07-05T04:07:14.141Z,31.30
2018-07-05T04:08:28.933Z,31.20
2018-07-05T04:09:44.393Z,31.20
2018-07-05T04:10:59.116Z,31.30
2018-07-05T04:12:13.781Z,31.20
2018-07-05T04:13:28.316Z,31.30
2018-07-05T04:14:42.835Z,31.40
2018-07-05T04:15:57.529Z,31.40
2018-07-05T04:17:12.265Z,31.40
2018-07-05T04:18:27.069Z,31.40
2018-07-05T04:19:48.752Z,31.40
2018-07-05T04:21:03.510Z,31.40
2018-07-05T04:22:18.236Z,31.40
2018-07-05T04:23:32.768Z,31.40
2018-07-05T04:24:47.328Z,31.40
2018-07-05T04:26:02.045Z,31.50
2018-07-05T04:27:16.909Z,31.60
2018-07-05T04:28:31.703Z,31.70
2018-07-05T04:29:46.580Z,31.70
2018-07-05T04:31:01.351Z,31.70
2018-07-05T04:32:16.105Z,31.60
2018-07-05T04:33:30.885Z,31.50
2018-07-05T04:34:45.698Z,31.50
2018-07-05T04:36:00.373Z,31.50
2018-07-05T04:37:15.184Z,31.50
2018-07-05T04:38:30.081Z,31.40
2018-07-05T04:39:44.862Z,31.40
2018-07-05T04:40:59.893Z,31.40
2018-07-05T04:42:14.746Z,31.40
2018-07-05T04:43:29.573Z,31.30
2018-07-05T04:44:44.316Z,31.40
2018-07-05T04:45:59.037Z,31.50
2018-07-05T04:47:14.220Z,31.40
2018-07-05T04:48:29.061Z,31.40
2018-07-05T04:49:43.658Z,31.40
2018-07-05T04:50:58.471Z,31.30
2018-07-05T04:52:13.007Z,31.30
2018-07-05T04:53:27.759Z,31.30
2018-07-05T04:54:42.373Z,31.30
2018-07-05T04:55:57.091Z,31.20
2018-07-05T04:57:11.823Z,31.20
2018-07-05T04:58:26.669Z,31.20
2018-07-05T04:59:41.260Z,31.20
2018-07-05T05:00:56.038Z,31.20
2018-07-05T05:02:10.843Z,31.10
2018-07-05T05:03:25.465Z,31.10
2018-07-05T05:04:39.920Z,31.20
2018-07-05T05:05:54.800Z,31.20
2018-07-05T05:07:09.540Z,31.20
2018-07-05T05:08:24.259Z,31.30
2018-07-05T05:09:39.015Z,31.20
2018-07-05T05:10:53.586Z,31.20
2018-07-05T05:12:08.225Z,31.30
2018-07-05T05:13:22.988Z,31.20
2018-07-05T05:14:37.685Z,31.30
2018-07-05T05:15:52.487Z,31.40
2018-07-05T05:17:07.242Z,31.40
2018-07-05T05:18:21.901Z,31.40
2018-07-05T05:19:36.693Z,31.40
2018-07-05T05:20:51.432Z,31.40
2018-07-05T05:22:05.957Z,31.30
2018-07-05T05:23:20.809Z,31.30
2018-07-05T05:24:35.666Z,31.30
2018-07-05T05:25:50.336Z,31.30
2018-07-05T05:27:05.211Z,31.30
2018-07-05T05:28:19.834Z,31.30
2018-07-05T05:29:34.636Z,31.40
2018-07-05T05:30:49.248Z,31.30
2018-07-05T05:32:03.916Z,31.20
2018-07-05T05:33:18.740Z,31.20
2018-07-05T05:34:33.568Z,31.10
2018-07-05T05:35:48.354Z,31.20
2018-07-05T05:37:02.949Z,31.30
2018-07-05T05:38:17.655Z,31.30
2018-07-05T05:39:32.338Z,31.30
2018-07-05T05:40:47.032Z,31.30
2018-07-05T05:42:01.724Z,31.40
2018-07-05T05:43:16.473Z,31.40
2018-07-05T05:44:31.284Z,31.30
2018-07-05T05:45:45.973Z,31.30
2018-07-05T05:47:00.898Z,31.30
2018-07-05T05:48:15.717Z,31.40
2018-07-05T05:49:30.390Z,31.40
2018-07-05T05:50:45.215Z,31.40
2018-07-05T05:51:59.925Z,31.40
2018-07-05T05:53:14.775Z,31.30
2018-07-05T05:54:29.312Z,31.40
2018-07-05T05:55:44.174Z,31.30
2018-07-05T05:56:58.661Z,31.30
2018-07-05T05:58:13.532Z,31.30
2018-07-05T05:59:28.249Z,31.30
2018-07-05T06:00:43.000Z,31.40
2018-07-05T06:01:57.707Z,31.40
2018-07-05T06:03:12.262Z,31.50
2018-07-05T06:04:27.098Z,31.50
2018-07-05T06:05:41.788Z,31.50
2018-07-05T06:06:56.516Z,31.60
2018-07-05T06:08:11.112Z,31.50
2018-07-05T06:09:25.829Z,31.60
2018-07-05T06:10:40.652Z,31.60
2018-07-05T06:11:55.361Z,31.60
2018-07-05T06:13:09.992Z,31.60
2018-07-05T06:14:24.689Z,31.50
2018-07-05T06:16:48.126Z,31.60
2018-07-05T06:18:02.896Z,31.80
2018-07-05T06:19:17.601Z,31.70
2018-07-05T06:20:32.270Z,31.60
2018-07-05T06:21:46.949Z,31.60
2018-07-05T06:23:01.638Z,31.60
2018-07-05T06:24:16.394Z,31.60
2018-07-05T06:25:31.194Z,31.50
2018-07-05T06:26:45.676Z,31.60
2018-07-05T06:28:00.267Z,31.60
2018-07-05T06:29:15.079Z,31.50
2018-07-05T06:30:29.801Z,31.50
2018-07-05T06:31:44.564Z,31.50
2018-07-05T06:34:08.013Z,31.60
2018-07-05T06:35:22.772Z,31.70
2018-07-05T06:36:37.385Z,31.70
2018-07-05T06:37:52.015Z,31.70
2018-07-05T06:39:07.608Z,31.70
2018-07-05T06:40:22.170Z,31.70
2018-07-05T06:41:36.868Z,31.60
2018-07-05T06:42:51.558Z,31.60
2018-07-05T06:44:06.395Z,31.70
2018-07-05T06:45:21.035Z,31.70
2018-07-05T06:46:35.854Z,31.80
2018-07-05T06:47:50.574Z,31.80
2018-07-05T06:49:05.281Z,31.80
2018-07-05T06:50:19.877Z,31.70
2018-07-05T06:51:34.685Z,31.60
2018-07-05T06:52:49.279Z,31.60
2018-07-05T06:54:04.049Z,31.60
2018-07-05T06:55:18.813Z,31.60
2018-07-05T06:56:33.621Z,31.60
2018-07-05T06:57:48.452Z,31.60
2018-07-05T06:59:03.102Z,31.50
2018-07-05T07:00:17.885Z,31.50
2018-07-05T07:01:32.653Z,31.50
2018-07-05T07:02:47.441Z,31.60
2018-07-05T07:04:02.117Z,31.50
2018-07-05T07:05:16.768Z,31.50
2018-07-05T07:06:31.428Z,31.50
2018-07-05T07:07:46.290Z,31.50
2018-07-05T07:09:00.972Z,31.50
2018-07-05T07:10:15.739Z,31.50
2018-07-05T07:11:30.376Z,31.60
2018-07-05T07:12:45.039Z,31.60
2018-07-05T07:13:59.770Z,31.50
2018-07-05T07:15:15.017Z,31.50
2018-07-05T07:16:29.881Z,31.50
2018-07-05T07:17:44.700Z,31.40
2018-07-05T07:18:59.566Z,31.50
2018-07-05T07:20:14.061Z,31.50
2018-07-05T07:21:28.729Z,31.50
2018-07-05T07:22:43.407Z,31.50
2018-07-05T07:23:58.271Z,31.60
2018-07-05T07:25:13.033Z,31.50
2018-07-05T07:26:27.768Z,31.60
2018-07-05T07:27:42.504Z,31.50
2018-07-05T07:28:57.369Z,31.50
2018-07-05T07:30:11.991Z,31.50
2018-07-05T07:31:27.053Z,31.40
2018-07-05T07:32:41.651Z,31.50
2018-07-05T07:33:56.236Z,31.50
2018-07-05T07:35:11.147Z,31.50
2018-07-05T07:36:25.671Z,31.60
2018-07-05T07:37:40.277Z,31.60
2018-07-05T07:38:54.893Z,31.60
2018-07-05T07:40:09.612Z,31.60
2018-07-05T07:41:24.396Z,31.60
2018-07-05T07:42:26.676Z,31.80
2018-07-05T07:43:28.976Z,31.90
2018-07-05T07:44:31.240Z,32.00
2018-07-05T07:45:33.595Z,32.10
2018-07-05T07:46:35.777Z,32.10
2018-07-05T07:47:38.135Z,32.30
2018-07-05T07:48:40.365Z,32.30
2018-07-05T07:49:42.613Z,32.20
2018-07-05T07:50:45.022Z,32.40
2018-07-05T07:51:47.701Z,32.40
2018-07-05T07:52:49.960Z,32.50
2018-07-05T07:53:52.888Z,32.50
2018-07-05T07:54:55.134Z,32.50
2018-07-05T07:55:57.368Z,32.50
2018-07-05T07:56:59.618Z,32.50
2018-07-05T07:58:01.877Z,32.40
2018-07-05T07:59:04.132Z,32.40
2018-07-05T08:00:06.378Z,32.40
2018-07-05T08:01:09.084Z,32.40
2018-07-05T08:02:11.335Z,32.40
2018-07-05T08:03:13.580Z,32.40
2018-07-05T08:04:15.939Z,32.40
2018-07-05T08:05:18.213Z,32.50
2018-07-05T08:06:20.469Z,32.40
2018-07-05T08:07:22.720Z,32.40
2018-07-05T08:08:24.995Z,32.50
2018-07-05T08:09:27.441Z,32.50
2018-07-05T08:10:29.749Z,32.50
2018-07-05T08:11:32.033Z,32.50
2018-07-05T08:12:34.266Z,32.40
2018-07-05T08:13:36.509Z,32.50
2018-07-05T08:14:38.749Z,32.40
2018-07-05T08:15:41.010Z,32.40
2018-07-05T08:16:43.256Z,32.30
2018-07-05T08:17:45.509Z,32.40
2018-07-05T08:18:47.741Z,32.30
2018-07-05T08:19:49.972Z,32.30
2018-07-05T08:20:52.284Z,32.30
2018-07-05T08:21:54.538Z,32.40
2018-07-05T08:22:56.806Z,32.40
2018-07-05T08:23:59.029Z,32.40
2018-07-05T08:25:01.309Z,32.40
2018-07-05T08:26:03.544Z,32.40
2018-07-05T08:27:05.822Z,32.50
2018-07-05T08:28:08.968Z,32.50
2018-07-05T08:29:11.217Z,32.40
2018-07-05T08:30:13.465Z,32.30
2018-07-05T08:31:15.742Z,32.30
2018-07-05T08:32:18.176Z,32.10
2018-07-05T08:33:20.408Z,32.00
2018-07-05T08:34:22.636Z,32.00
2018-07-05T08:35:24.950Z,31.90
2018-07-05T08:36:27.192Z,31.80
2018-07-05T08:37:29.469Z,31.80
2018-07-05T08:38:31.786Z,31.80
2018-07-05T08:39:34.065Z,31.70
2018-07-05T08:40:36.302Z,31.70
2018-07-05T08:41:38.638Z,31.70
2018-07-05T08:42:40.982Z,31.60
2018-07-05T08:43:43.224Z,31.50
2018-07-05T08:44:45.520Z,31.50
2018-07-05T08:45:47.781Z,31.50
2018-07-05T08:46:50.120Z,31.50
2018-07-05T08:47:52.369Z,31.50
2018-07-05T08:48:54.629Z,31.60
2018-07-05T08:49:56.903Z,31.80
2018-07-05T08:50:59.147Z,31.80
2018-07-05T08:52:01.414Z,31.80
2018-07-05T08:53:03.780Z,31.90
2018-07-05T08:54:06.000Z,31.90
2018-07-05T08:56:10.704Z,32.00
2018-07-05T08:57:13.049Z,32.00
2018-07-05T08:58:15.319Z,32.00
2018-07-05T08:59:17.525Z,31.90
2018-07-05T09:00:19.790Z,31.90
2018-07-05T09:01:22.077Z,32.00
2018-07-05T09:02:24.351Z,32.00
2018-07-05T09:03:26.617Z,32.10
2018-07-05T09:04:28.894Z,32.10
2018-07-05T09:05:31.188Z,32.10
2018-07-05T09:06:33.443Z,32.10
2018-07-05T09:07:35.690Z,32.10
2018-07-05T09:08:37.923Z,32.10
2018-07-05T09:09:40.198Z,32.20
2018-07-05T09:10:42.526Z,32.30
2018-07-05T09:11:44.816Z,32.40
2018-07-05T09:13:49.773Z,32.40
2018-07-05T09:14:52.044Z,32.30
2018-07-05T09:15:54.406Z,32.20
2018-07-05T09:16:56.646Z,32.20
2018-07-05T09:17:59.074Z,32.30
2018-07-05T09:19:01.290Z,32.40
2018-07-05T09:20:03.516Z,32.30
2018-07-05T09:21:05.754Z,32.20
2018-07-05T09:22:08.031Z,32.20
2018-07-05T09:23:10.342Z,32.30
2018-07-05T09:24:12.589Z,32.50
2018-07-05T09:25:14.932Z,32.50
2018-07-05T09:26:17.314Z,32.40
2018-07-05T09:27:19.596Z,32.40
2018-07-05T09:28:21.921Z,32.50
2018-07-05T09:29:24.156Z,32.50
2018-07-05T09:30:26.472Z,32.50
2018-07-05T09:31:28.946Z,32.40
2018-07-05T09:32:31.188Z,32.50
2018-07-05T09:33:33.445Z,32.40
2018-07-05T09:34:35.692Z,32.50
2018-07-05T09:35:37.925Z,32.50
2018-07-05T09:36:40.204Z,32.50
2018-07-05T09:37:42.485Z,32.50
2018-07-05T09:38:44.733Z,32.50
2018-07-05T09:39:46.997Z,32.50
2018-07-05T09:40:49.232Z,32.50
2018-07-05T09:41:51.579Z,32.50
2018-07-05T09:42:53.843Z,32.50
2018-07-05T09:43:56.112Z,32.60
2018-07-05T09:44:58.367Z,32.50
2018-07-05T09:46:00.634Z,32.50
2018-07-05T09:47:03.162Z,32.50
2018-07-05T09:48:05.368Z,32.50
2018-07-05T09:49:07.603Z,32.50
2018-07-05T09:51:12.493Z,32.40
2018-07-05T09:52:14.792Z,32.40
2018-07-05T09:53:17.105Z,32.50
2018-07-05T09:54:19.349Z,32.40
2018-07-05T09:55:21.632Z,32.30
2018-07-05T09:56:23.904Z,32.40
2018-07-05T09:57:26.173Z,32.40
2018-07-05T09:58:28.419Z,32.30
2018-07-05T09:59:30.657Z,32.20
2018-07-05T10:00:38.544Z,32.20
2018-07-05T10:01:40.783Z,32.10
2018-07-05T10:02:43.044Z,32.00
2018-07-05T10:03:45.485Z,32.10
2018-07-05T10:04:48.038Z,32.20
2018-07-05T10:05:50.416Z,32.30
2018-07-05T10:06:52.670Z,32.40
2018-07-05T10:07:55.105Z,32.30
2018-07-05T10:08:57.417Z,32.40
2018-07-05T10:09:59.652Z,32.30
2018-07-05T10:11:01.916Z,32.20
2018-07-05T10:12:04.165Z,32.20
2018-07-05T10:13:06.474Z,32.20
2018-07-05T10:14:08.695Z,32.20
2018-07-05T10:15:10.987Z,32.30
2018-07-05T10:16:13.344Z,32.30
2018-07-05T10:17:15.593Z,32.30
2018-07-05T10:18:17.828Z,32.30
2018-07-05T10:20:22.672Z,32.20
2018-07-05T10:21:24.944Z,32.20
2018-07-05T10:22:27.295Z,32.20
2018-07-05T10:23:29.563Z,32.30
2018-07-05T10:24:31.825Z,32.40
2018-07-05T10:25:34.068Z,32.40
2018-07-05T10:26:36.325Z,32.40
2018-07-05T10:27:38.575Z,32.50
2018-07-05T10:28:53.340Z,32.40
2018-07-05T10:30:07.957Z,32.40
2018-07-05T10:31:22.693Z,32.40
2018-07-05T10:32:37.400Z,32.20
2018-07-05T10:33:47.669Z,32.10
2018-07-05T10:34:49.944Z,32.10
2018-07-05T10:35:52.217Z,32.10
2018-07-05T10:36:54.449Z,32.10
2018-07-05T10:37:58.270Z,32.10
2018-07-05T10:39:00.603Z,32.20
2018-07-05T10:40:15.253Z,32.20
2018-07-05T10:41:30.189Z,32.20
2018-07-05T10:42:44.909Z,32.20
2018-07-05T10:43:59.624Z,32.00
2018-07-05T10:45:15.176Z,32.00
2018-07-05T10:46:29.936Z,31.80
2018-07-05T10:47:44.586Z,31.70
2018-07-05T10:48:59.426Z,31.60
2018-07-05T10:50:14.288Z,31.70
2018-07-05T10:51:29.053Z,31.60
2018-07-05T10:52:43.777Z,31.60
2018-07-05T10:53:58.717Z,31.60
2018-07-05T10:55:13.456Z,31.60
2018-07-05T10:56:28.237Z,31.50
2018-07-05T10:57:42.653Z,31.50
2018-07-05T10:58:57.459Z,31.50
2018-07-05T11:00:12.223Z,31.50
2018-07-05T11:01:27.284Z,31.50
2018-07-05T11:02:41.864Z,31.40
2018-07-05T11:05:05.392Z,31.40
2018-07-05T11:06:20.032Z,31.40
2018-07-05T11:07:34.834Z,31.40
2018-07-05T11:08:49.647Z,31.30
2018-07-05T11:10:04.427Z,31.30
2018-07-05T11:11:19.021Z,31.30
2018-07-05T11:12:33.906Z,31.30
2018-07-05T11:13:48.661Z,31.40
2018-07-05T11:15:03.342Z,31.40
2018-07-05T11:16:18.021Z,31.40
2018-07-05T11:17:32.712Z,31.30
2018-07-05T11:18:47.557Z,31.20
2018-07-05T11:20:02.287Z,31.30
2018-07-05T11:21:16.983Z,31.20
2018-07-05T11:22:31.840Z,31.30
2018-07-05T11:23:46.472Z,31.30
2018-07-05T11:25:01.339Z,31.40
2018-07-05T11:26:16.054Z,31.40
2018-07-05T11:27:30.537Z,31.30
2018-07-05T11:28:45.117Z,31.20
2018-07-05T11:29:59.809Z,31.20
2018-07-05T11:31:14.337Z,31.20
2018-07-05T11:32:29.813Z,31.20
2018-07-05T11:33:44.317Z,31.20
2018-07-05T11:34:59.152Z,31.20
2018-07-05T11:36:13.779Z,31.20
2018-07-05T11:37:28.542Z,31.30
2018-07-05T11:38:43.071Z,31.40
2018-07-05T11:39:57.770Z,31.40
2018-07-05T11:41:12.498Z,31.20
2018-07-05T11:42:27.266Z,31.20
2018-07-05T11:43:42.106Z,31.20
2018-07-05T11:44:57.006Z,31.20
2018-07-05T11:46:11.657Z,31.10
2018-07-05T11:47:26.422Z,31.20
2018-07-05T11:48:41.282Z,31.20
2018-07-05T11:49:55.914Z,31.10
2018-07-05T11:51:10.677Z,31.30
2018-07-05T11:52:25.368Z,31.30
2018-07-05T11:53:40.073Z,31.40
2018-07-05T11:54:54.893Z,31.50
2018-07-05T11:56:09.420Z,31.50
2018-07-05T11:57:24.126Z,31.50
2018-07-05T11:58:38.904Z,31.40
2018-07-05T11:59:53.580Z,31.40
2018-07-05T12:01:08.329Z,31.40
2018-07-05T12:02:23.087Z,31.40
2018-07-05T12:03:37.903Z,31.20
2018-07-05T12:04:52.582Z,31.30
2018-07-05T12:06:07.410Z,31.40
2018-07-05T12:07:22.089Z,31.30
2018-07-05T12:08:36.685Z,31.40
2018-07-05T12:09:51.497Z,31.40
2018-07-05T12:11:06.165Z,31.40
2018-07-05T12:12:21.068Z,31.50
2018-07-05T12:13:35.634Z,31.50
2018-07-05T12:14:50.541Z,31.50
2018-07-05T12:17:13.855Z,31.40
2018-07-05T12:18:28.417Z,31.30
2018-07-05T12:19:43.153Z,31.50
2018-07-05T12:20:57.799Z,31.50
2018-07-05T12:22:12.295Z,31.50
2018-07-05T12:23:26.899Z,31.50
2018-07-05T12:24:41.621Z,31.50
2018-07-05T12:25:56.480Z,31.60
2018-07-05T12:27:11.297Z,31.50
2018-07-05T12:28:26.067Z,31.40
2018-07-05T12:29:40.763Z,31.40
2018-07-05T12:30:55.540Z,31.50
2018-07-05T12:32:10.070Z,31.50
2018-07-05T12:33:24.829Z,31.60
2018-07-05T12:34:39.556Z,31.60
2018-07-05T12:35:54.444Z,31.50
2018-07-05T12:37:09.145Z,31.50
2018-07-05T12:38:23.930Z,31.50
2018-07-05T12:39:38.446Z,31.40
2018-07-05T12:40:53.283Z,31.40
2018-07-05T12:42:07.982Z,31.40
2018-07-05T12:43:22.811Z,31.40
2018-07-05T12:44:37.427Z,31.30
2018-07-05T12:45:51.943Z,31.40
2018-07-05T12:47:06.620Z,31.50
2018-07-05T12:48:21.265Z,31.60
2018-07-05T12:49:35.968Z,31.60
2018-07-05T12:50:50.755Z,31.60
2018-07-05T12:52:05.469Z,31.50
2018-07-05T12:53:20.012Z,31.60
2018-07-05T12:54:34.796Z,31.60
2018-07-05T12:55:49.732Z,31.60
2018-07-05T12:57:04.517Z,31.60
2018-07-05T12:58:19.274Z,31.50
2018-07-05T12:59:33.949Z,31.50
2018-07-05T13:00:48.627Z,31.60
2018-07-05T13:02:03.213Z,31.60
2018-07-05T13:03:17.876Z,31.70
2018-07-05T13:04:32.697Z,31.60
2018-07-05T13:05:47.556Z,31.60
2018-07-05T13:07:02.319Z,31.60
2018-07-05T13:08:17.160Z,31.50
2018-07-05T13:09:32.020Z,31.60
2018-07-05T13:10:46.950Z,31.50
2018-07-05T13:12:01.460Z,31.50
2018-07-05T13:13:16.012Z,31.50
2018-07-05T13:14:30.717Z,31.60
2018-07-05T13:15:45.370Z,31.50
2018-07-05T13:17:00.248Z,31.50
2018-07-05T13:18:15.007Z,31.50
2018-07-05T13:19:29.750Z,31.60
2018-07-05T13:20:44.484Z,31.60
2018-07-05T13:21:59.240Z,31.50
2018-07-05T13:23:13.785Z,31.50
2018-07-05T13:24:28.537Z,31.40
2018-07-05T13:25:43.176Z,31.40
2018-07-05T13:26:58.081Z,31.40
2018-07-05T13:28:12.819Z,31.40
2018-07-05T13:29:27.570Z,31.40
2018-07-05T13:30:42.483Z,31.40
2018-07-05T13:31:57.099Z,31.40
2018-07-05T13:33:12.059Z,31.40
2018-07-05T13:34:26.623Z,31.50
2018-07-05T13:35:41.297Z,31.60
2018-07-05T13:36:56.186Z,31.50
2018-07-05T13:38:11.033Z,31.50
2018-07-05T13:39:25.852Z,31.50
2018-07-05T13:40:40.490Z,31.50
2018-07-05T13:41:55.316Z,31.60
2018-07-05T13:43:09.916Z,31.60
2018-07-05T13:44:24.637Z,31.60
2018-07-05T13:45:39.329Z,31.50
2018-07-05T13:46:54.068Z,31.60
2018-07-05T13:48:08.856Z,31.70
2018-07-05T13:49:23.477Z,31.70
2018-07-05T13:50:38.313Z,31.60
2018-07-05T13:51:53.069Z,31.70
2018-07-05T13:53:07.842Z,31.60
2018-07-05T13:54:22.596Z,31.50
2018-07-05T13:55:37.168Z,31.60
2018-07-05T13:56:51.884Z,31.50
2018-07-05T13:58:06.533Z,31.60
2018-07-05T13:59:21.398Z,31.60
2018-07-05T14:00:36.237Z,31.70
2018-07-05T14:01:50.914Z,31.70
2018-07-05T14:03:05.443Z,31.70
2018-07-05T14:04:20.145Z,31.60
2018-07-05T14:05:34.922Z,31.70
2018-07-05T14:06:49.786Z,31.70
2018-07-05T14:08:04.560Z,31.60
2018-07-05T14:09:19.317Z,31.70
2018-07-05T14:10:34.074Z,31.70
2018-07-05T14:11:48.690Z,31.80
2018-07-05T14:13:03.556Z,31.80
2018-07-05T14:14:18.266Z,31.70
2018-07-05T14:15:32.980Z,31.70
2018-07-05T14:16:47.755Z,31.50
2018-07-05T14:18:02.606Z,31.60
2018-07-05T14:19:17.447Z,31.50
2018-07-05T14:20:32.148Z,31.50
2018-07-05T14:21:46.814Z,31.50
2018-07-05T14:23:01.653Z,31.50
2018-07-05T14:24:16.256Z,31.50
2018-07-05T14:25:30.976Z,31.50
2018-07-05T14:26:45.746Z,31.50
2018-07-05T14:28:00.479Z,31.50
2018-07-05T14:29:15.095Z,31.60
2018-07-05T14:30:29.648Z,31.60
2018-07-05T14:31:44.494Z,31.60
2018-07-05T14:32:59.135Z,31.70
2018-07-05T14:34:13.751Z,31.70
2018-07-05T14:35:28.497Z,31.70
2018-07-05T14:36:43.462Z,31.70
2018-07-05T14:37:57.987Z,31.70
2018-07-05T14:39:12.640Z,31.80
2018-07-05T14:40:27.876Z,31.80
2018-07-05T14:41:42.542Z,31.70
2018-07-05T14:42:57.029Z,31.80
2018-07-05T14:44:11.860Z,31.80
2018-07-05T14:45:26.997Z,31.70
2018-07-05T14:46:41.652Z,31.70
2018-07-05T14:47:56.391Z,31.60
2018-07-05T14:49:11.152Z,31.70
2018-07-05T14:50:25.932Z,31.70
2018-07-05T14:51:40.794Z,31.60
2018-07-05T14:52:55.583Z,31.50
2018-07-05T14:55:19.100Z,31.70
2018-07-05T14:56:33.931Z,31.70
2018-07-05T14:57:48.768Z,31.70
2018-07-05T14:59:03.545Z,31.70
2018-07-05T15:00:18.517Z,31.60
2018-07-05T15:01:33.554Z,31.60
2018-07-05T15:02:48.432Z,31.70
2018-07-05T15:04:03.318Z,31.70
2018-07-05T15:05:18.598Z,31.80
2018-07-05T15:06:33.849Z,31.60
2018-07-05T15:07:48.878Z,31.70
2018-07-05T15:09:04.717Z,31.80
2018-07-05T15:10:19.718Z,31.80
2018-07-05T15:11:34.963Z,31.90
2018-07-05T15:12:49.724Z,31.80
2018-07-05T15:14:04.240Z,31.80
2018-07-05T15:15:19.044Z,31.70
2018-07-05T15:16:33.778Z,31.60
2018-07-05T15:17:48.497Z,31.60
2018-07-05T15:19:03.141Z,31.50
2018-07-05T15:20:18.106Z,31.50
2018-07-05T15:21:32.751Z,31.50
2018-07-05T15:22:47.489Z,31.60
2018-07-05T15:24:02.570Z,31.60
2018-07-05T15:25:17.485Z,31.70
2018-07-05T15:26:32.053Z,31.70
2018-07-05T15:27:47.037Z,31.70
2018-07-05T15:29:01.625Z,31.70
2018-07-05T15:30:16.783Z,31.70
2018-07-05T15:31:31.374Z,31.70
2018-07-05T15:32:46.103Z,31.80
2018-07-05T15:34:00.740Z,31.80
2018-07-05T15:35:15.528Z,31.70
2018-07-05T15:36:30.241Z,31.70
2018-07-05T15:37:45.083Z,31.70
2018-07-05T15:38:59.986Z,31.50
2018-07-05T15:41:23.372Z,31.50
2018-07-05T15:42:38.162Z,31.60
2018-07-05T15:43:52.874Z,31.60
2018-07-05T15:45:07.481Z,31.50